sensor_id;sensor_type;location;lat;lon;timestamp;P1;durP1;ratioP1;P2;durP2;ratioP2
18818;SDS011;9537;45.594;9.294;2022-09-12T00:00:44;3.30;;;1.90;;
18818;SDS011;9537;45.594;9.294;2022-09-12T00:02:05;6.40;;;2.17;;
18818;SDS011;9537;45.594;9.294;2022-09-12T00:03:27;3.70;;;1.70;;
18818;SDS011;9537;45.594;9.294;2022-09-12T00:04:48;5.07;;;1.90;;
18818;SDS011;9537;45.594;9.294;2022-09-12T00:06:11;5.93;;;1.80;;
18818;SDS011;9537;45.594;9.294;2022-09-12T00:07:35;3.20;;;1.70;;
18818;SDS011;9537;45.594;9.294;2022-09-12T00:08:59;8.03;;;1.90;;
18818;SDS011;9537;45.594;9.294;2022-09-12T00:10:25;7.40;;;2.00;;
18818;SDS011;9537;45.594;9.294;2022-09-12T00:11:46;3.17;;;1.50;;
18818;SDS011;9537;45.594;9.294;2022-09-12T00:13:08;7.70;;;1.60;;
18818;SDS011;9537;45.594;9.294;2022-09-12T00:14:30;4.07;;;1.63;;
18818;SDS011;9537;45.594;9.294;2022-09-12T00:15:52;6.73;;;2.00;;
18818;SDS011;9537;45.594;9.294;2022-09-12T00:17:13;2.80;;;1.53;;
18818;SDS011;9537;45.594;9.294;2022-09-12T00:18:35;5.40;;;1.80;;
18818;SDS011;9537;45.594;9.294;2022-09-12T00:19:57;9.47;;;1.73;;
18818;SDS011;9537;45.594;9.294;2022-09-12T00:21:19;6.63;;;1.90;;
18818;SDS011;9537;45.594;9.294;2022-09-12T00:22:41;6.43;;;2.28;;
18818;SDS011;9537;45.594;9.294;2022-09-12T00:24:03;10.38;;;2.40;;
18818;SDS011;9537;45.594;9.294;2022-09-12T00:25:27;9.13;;;2.00;;
18818;SDS011;9537;45.594;9.294;2022-09-12T00:26:50;4.50;;;2.07;;
18818;SDS011;9537;45.594;9.294;2022-09-12T00:28:13;5.73;;;2.03;;
18818;SDS011;9537;45.594;9.294;2022-09-12T00:29:36;4.50;;;1.87;;
18818;SDS011;9537;45.594;9.294;2022-09-12T00:30:58;5.93;;;2.00;;
18818;SDS011;9537;45.594;9.294;2022-09-12T00:32:19;6.93;;;1.90;;
18818;SDS011;9537;45.594;9.294;2022-09-12T00:33:41;6.73;;;1.87;;
18818;SDS011;9537;45.594;9.294;2022-09-12T00:35:03;5.90;;;2.00;;
18818;SDS011;9537;45.594;9.294;2022-09-12T00:36:27;4.87;;;1.83;;
18818;SDS011;9537;45.594;9.294;2022-09-12T00:37:49;3.43;;;1.70;;
18818;SDS011;9537;45.594;9.294;2022-09-12T00:39:12;2.47;;;1.93;;
18818;SDS011;9537;45.594;9.294;2022-09-12T00:40:38;3.83;;;2.00;;
18818;SDS011;9537;45.594;9.294;2022-09-12T00:41:59;2.97;;;1.80;;
18818;SDS011;9537;45.594;9.294;2022-09-12T00:43:35;3.73;;;1.80;;
18818;SDS011;9537;45.594;9.294;2022-09-12T00:44:57;3.43;;;1.80;;
18818;SDS011;9537;45.594;9.294;2022-09-12T00:46:23;3.47;;;1.90;;
18818;SDS011;9537;45.594;9.294;2022-09-12T00:47:48;5.30;;;2.00;;
18818;SDS011;9537;45.594;9.294;2022-09-12T00:49:11;5.13;;;1.77;;
18818;SDS011;9537;45.594;9.294;2022-09-12T00:50:36;5.60;;;1.63;;
18818;SDS011;9537;45.594;9.294;2022-09-12T00:51:59;5.07;;;2.00;;
18818;SDS011;9537;45.594;9.294;2022-09-12T00:53:26;3.30;;;1.63;;
18818;SDS011;9537;45.594;9.294;2022-09-12T00:54:49;5.87;;;1.87;;
18818;SDS011;9537;45.594;9.294;2022-09-12T00:56:17;6.70;;;1.70;;
18818;SDS011;9537;45.594;9.294;2022-09-12T00:57:39;4.43;;;1.80;;
18818;SDS011;9537;45.594;9.294;2022-09-12T00:59:10;4.77;;;2.37;;
18818;SDS011;9537;45.594;9.294;2022-09-12T01:00:38;6.43;;;2.10;;
18818;SDS011;9537;45.594;9.294;2022-09-12T01:02:00;3.53;;;1.80;;
18818;SDS011;9537;45.594;9.294;2022-09-12T01:03:22;3.60;;;1.70;;
18818;SDS011;9537;45.594;9.294;2022-09-12T01:04:45;4.43;;;1.70;;
18818;SDS011;9537;45.594;9.294;2022-09-12T01:06:08;2.93;;;1.70;;
18818;SDS011;9537;45.594;9.294;2022-09-12T01:07:35;4.13;;;1.93;;
18818;SDS011;9537;45.594;9.294;2022-09-12T01:08:57;4.80;;;2.00;;
18818;SDS011;9537;45.594;9.294;2022-09-12T01:10:23;4.27;;;1.97;;
18818;SDS011;9537;45.594;9.294;2022-09-12T01:11:46;6.60;;;1.90;;
18818;SDS011;9537;45.594;9.294;2022-09-12T01:13:08;2.27;;;1.40;;
18818;SDS011;9537;45.594;9.294;2022-09-12T01:14:31;4.93;;;2.10;;
18818;SDS011;9537;45.594;9.294;2022-09-12T01:15:52;3.90;;;1.67;;
18818;SDS011;9537;45.594;9.294;2022-09-12T01:17:15;3.07;;;1.63;;
18818;SDS011;9537;45.594;9.294;2022-09-12T01:18:40;2.73;;;1.93;;
18818;SDS011;9537;45.594;9.294;2022-09-12T01:20:19;2.47;;;1.60;;
18818;SDS011;9537;45.594;9.294;2022-09-12T01:22:08;3.03;;;1.90;;
18818;SDS011;9537;45.594;9.294;2022-09-12T01:25:36;5.10;;;1.90;;
18818;SDS011;9537;45.594;9.294;2022-09-12T01:27:17;2.60;;;1.80;;
18818;SDS011;9537;45.594;9.294;2022-09-12T01:30:45;3.43;;;1.70;;
18818;SDS011;9537;45.594;9.294;2022-09-12T01:32:12;5.40;;;1.87;;
18818;SDS011;9537;45.594;9.294;2022-09-12T01:33:45;4.37;;;1.77;;
18818;SDS011;9537;45.594;9.294;2022-09-12T01:35:17;2.67;;;1.60;;
18818;SDS011;9537;45.594;9.294;2022-09-12T01:36:43;4.67;;;2.00;;
18818;SDS011;9537;45.594;9.294;2022-09-12T01:38:20;3.37;;;1.80;;
18818;SDS011;9537;45.594;9.294;2022-09-12T01:39:47;3.73;;;1.90;;
18818;SDS011;9537;45.594;9.294;2022-09-12T01:41:20;3.33;;;2.07;;
18818;SDS011;9537;45.594;9.294;2022-09-12T01:42:45;3.10;;;1.60;;
18818;SDS011;9537;45.594;9.294;2022-09-12T01:44:19;3.57;;;1.70;;
18818;SDS011;9537;45.594;9.294;2022-09-12T01:45:50;2.00;;;1.70;;
18818;SDS011;9537;45.594;9.294;2022-09-12T01:47:19;2.73;;;1.70;;
18818;SDS011;9537;45.594;9.294;2022-09-12T01:48:44;3.37;;;2.03;;
18818;SDS011;9537;45.594;9.294;2022-09-12T01:50:12;6.13;;;2.43;;
18818;SDS011;9537;45.594;9.294;2022-09-12T01:51:38;4.33;;;1.90;;
18818;SDS011;9537;45.594;9.294;2022-09-12T01:53:05;4.77;;;1.90;;
18818;SDS011;9537;45.594;9.294;2022-09-12T01:54:32;5.53;;;1.70;;
18818;SDS011;9537;45.594;9.294;2022-09-12T01:56:02;2.47;;;1.90;;
18818;SDS011;9537;45.594;9.294;2022-09-12T01:57:30;2.03;;;1.70;;
18818;SDS011;9537;45.594;9.294;2022-09-12T01:58:57;2.50;;;1.93;;
18818;SDS011;9537;45.594;9.294;2022-09-12T02:00:24;2.07;;;1.60;;
18818;SDS011;9537;45.594;9.294;2022-09-12T02:01:49;2.60;;;1.80;;
18818;SDS011;9537;45.594;9.294;2022-09-12T02:03:15;2.77;;;2.00;;
18818;SDS011;9537;45.594;9.294;2022-09-12T02:04:43;3.30;;;1.93;;
18818;SDS011;9537;45.594;9.294;2022-09-12T02:06:14;6.37;;;1.60;;
18818;SDS011;9537;45.594;9.294;2022-09-12T02:07:40;2.83;;;1.73;;
18818;SDS011;9537;45.594;9.294;2022-09-12T02:09:08;3.23;;;1.80;;
18818;SDS011;9537;45.594;9.294;2022-09-12T02:10:33;2.73;;;1.90;;
18818;SDS011;9537;45.594;9.294;2022-09-12T02:12:02;2.20;;;1.80;;
18818;SDS011;9537;45.594;9.294;2022-09-12T02:13:29;2.00;;;1.47;;
18818;SDS011;9537;45.594;9.294;2022-09-12T02:14:56;3.20;;;1.90;;
18818;SDS011;9537;45.594;9.294;2022-09-12T02:16:26;3.90;;;1.60;;
18818;SDS011;9537;45.594;9.294;2022-09-12T02:17:54;4.13;;;1.83;;
18818;SDS011;9537;45.594;9.294;2022-09-12T02:19:19;2.83;;;1.73;;
18818;SDS011;9537;45.594;9.294;2022-09-12T02:20:43;4.33;;;1.80;;
18818;SDS011;9537;45.594;9.294;2022-09-12T02:22:07;3.90;;;1.77;;
18818;SDS011;9537;45.594;9.294;2022-09-12T02:23:33;2.37;;;1.77;;
18818;SDS011;9537;45.594;9.294;2022-09-12T02:25:00;2.67;;;1.77;;
18818;SDS011;9537;45.594;9.294;2022-09-12T02:26:28;4.80;;;2.00;;
18818;SDS011;9537;45.594;9.294;2022-09-12T02:27:53;5.17;;;2.20;;
18818;SDS011;9537;45.594;9.294;2022-09-12T02:29:20;2.70;;;1.80;;
18818;SDS011;9537;45.594;9.294;2022-09-12T02:30:42;3.40;;;1.80;;
18818;SDS011;9537;45.594;9.294;2022-09-12T02:32:11;7.07;;;2.00;;
18818;SDS011;9537;45.594;9.294;2022-09-12T02:33:41;3.13;;;2.00;;
18818;SDS011;9537;45.594;9.294;2022-09-12T02:35:10;6.90;;;2.17;;
18818;SDS011;9537;45.594;9.294;2022-09-12T02:36:40;2.70;;;1.80;;
18818;SDS011;9537;45.594;9.294;2022-09-12T02:38:11;4.10;;;2.30;;
18818;SDS011;9537;45.594;9.294;2022-09-12T02:39:39;3.20;;;1.90;;
18818;SDS011;9537;45.594;9.294;2022-09-12T02:41:01;3.60;;;1.90;;
18818;SDS011;9537;45.594;9.294;2022-09-12T02:42:23;4.00;;;1.60;;
18818;SDS011;9537;45.594;9.294;2022-09-12T02:43:46;2.10;;;1.90;;
18818;SDS011;9537;45.594;9.294;2022-09-12T02:45:10;2.30;;;1.93;;
18818;SDS011;9537;45.594;9.294;2022-09-12T02:46:35;2.03;;;1.83;;
18818;SDS011;9537;45.594;9.294;2022-09-12T02:48:00;3.33;;;2.13;;
18818;SDS011;9537;45.594;9.294;2022-09-12T02:49:27;2.70;;;1.93;;
18818;SDS011;9537;45.594;9.294;2022-09-12T02:50:49;3.47;;;2.00;;
18818;SDS011;9537;45.594;9.294;2022-09-12T02:52:12;2.63;;;2.00;;
18818;SDS011;9537;45.594;9.294;2022-09-12T02:53:33;2.93;;;1.80;;
18818;SDS011;9537;45.594;9.294;2022-09-12T02:54:57;3.07;;;2.27;;
18818;SDS011;9537;45.594;9.294;2022-09-12T02:56:21;2.47;;;1.60;;
18818;SDS011;9537;45.594;9.294;2022-09-12T02:57:47;3.87;;;1.73;;
18818;SDS011;9537;45.594;9.294;2022-09-12T02:59:10;3.90;;;1.73;;
18818;SDS011;9537;45.594;9.294;2022-09-12T03:00:37;2.23;;;1.87;;
18818;SDS011;9537;45.594;9.294;2022-09-12T03:02:09;3.63;;;2.03;;
18818;SDS011;9537;45.594;9.294;2022-09-12T03:03:46;3.37;;;1.80;;
18818;SDS011;9537;45.594;9.294;2022-09-12T03:05:23;2.23;;;1.80;;
18818;SDS011;9537;45.594;9.294;2022-09-12T03:06:50;2.67;;;1.70;;
18818;SDS011;9537;45.594;9.294;2022-09-12T03:08:36;2.13;;;1.60;;
18818;SDS011;9537;45.594;9.294;2022-09-12T03:10:12;2.30;;;2.00;;
18818;SDS011;9537;45.594;9.294;2022-09-12T03:11:55;2.33;;;1.83;;
18818;SDS011;9537;45.594;9.294;2022-09-12T03:13:31;4.10;;;1.90;;
18818;SDS011;9537;45.594;9.294;2022-09-12T03:16:44;4.07;;;2.23;;
18818;SDS011;9537;45.594;9.294;2022-09-12T03:18:18;2.10;;;1.87;;
18818;SDS011;9537;45.594;9.294;2022-09-12T03:19:51;2.67;;;2.00;;
18818;SDS011;9537;45.594;9.294;2022-09-12T03:21:20;2.17;;;1.73;;
18818;SDS011;9537;45.594;9.294;2022-09-12T03:22:50;3.03;;;1.70;;
18818;SDS011;9537;45.594;9.294;2022-09-12T03:24:15;2.40;;;1.70;;
18818;SDS011;9537;45.594;9.294;2022-09-12T03:25:41;2.67;;;1.80;;
18818;SDS011;9537;45.594;9.294;2022-09-12T03:27:09;4.00;;;2.00;;
18818;SDS011;9537;45.594;9.294;2022-09-12T03:28:36;2.33;;;1.63;;
18818;SDS011;9537;45.594;9.294;2022-09-12T03:29:58;2.83;;;1.93;;
18818;SDS011;9537;45.594;9.294;2022-09-12T03:31:21;7.10;;;2.20;;
18818;SDS011;9537;45.594;9.294;2022-09-12T03:32:44;2.30;;;1.83;;
18818;SDS011;9537;45.594;9.294;2022-09-12T03:34:07;2.10;;;1.67;;
18818;SDS011;9537;45.594;9.294;2022-09-12T03:35:32;2.53;;;1.80;;
18818;SDS011;9537;45.594;9.294;2022-09-12T03:36:54;2.43;;;1.80;;
18818;SDS011;9537;45.594;9.294;2022-09-12T03:38:17;3.93;;;1.87;;
18818;SDS011;9537;45.594;9.294;2022-09-12T03:39:39;1.90;;;1.70;;
18818;SDS011;9537;45.594;9.294;2022-09-12T03:41:01;2.50;;;1.80;;
18818;SDS011;9537;45.594;9.294;2022-09-12T03:42:22;3.73;;;2.10;;
18818;SDS011;9537;45.594;9.294;2022-09-12T03:43:44;31.17;;;4.30;;
18818;SDS011;9537;45.594;9.294;2022-09-12T03:45:06;27.57;;;3.57;;
18818;SDS011;9537;45.594;9.294;2022-09-12T03:46:29;27.67;;;4.30;;
18818;SDS011;9537;45.594;9.294;2022-09-12T03:47:51;15.13;;;2.43;;
18818;SDS011;9537;45.594;9.294;2022-09-12T03:49:12;7.43;;;2.37;;
18818;SDS011;9537;45.594;9.294;2022-09-12T03:50:35;5.73;;;2.70;;
18818;SDS011;9537;45.594;9.294;2022-09-12T03:51:58;4.50;;;2.50;;
18818;SDS011;9537;45.594;9.294;2022-09-12T03:53:19;3.30;;;2.03;;
18818;SDS011;9537;45.594;9.294;2022-09-12T03:54:41;3.03;;;1.97;;
18818;SDS011;9537;45.594;9.294;2022-09-12T03:56:04;3.97;;;2.10;;
18818;SDS011;9537;45.594;9.294;2022-09-12T03:57:27;4.60;;;1.97;;
18818;SDS011;9537;45.594;9.294;2022-09-12T03:58:49;3.10;;;1.90;;
18818;SDS011;9537;45.594;9.294;2022-09-12T04:00:11;3.77;;;1.70;;
18818;SDS011;9537;45.594;9.294;2022-09-12T04:01:33;3.93;;;1.87;;
18818;SDS011;9537;45.594;9.294;2022-09-12T04:02:56;5.13;;;2.10;;
18818;SDS011;9537;45.594;9.294;2022-09-12T04:04:17;2.53;;;1.93;;
18818;SDS011;9537;45.594;9.294;2022-09-12T04:05:40;3.10;;;2.10;;
18818;SDS011;9537;45.594;9.294;2022-09-12T04:07:02;3.63;;;2.40;;
18818;SDS011;9537;45.594;9.294;2022-09-12T04:08:24;3.90;;;2.10;;
18818;SDS011;9537;45.594;9.294;2022-09-12T04:09:46;5.00;;;2.00;;
18818;SDS011;9537;45.594;9.294;2022-09-12T04:11:09;2.07;;;1.77;;
18818;SDS011;9537;45.594;9.294;2022-09-12T04:12:31;3.90;;;2.00;;
18818;SDS011;9537;45.594;9.294;2022-09-12T04:13:54;3.37;;;1.70;;
18818;SDS011;9537;45.594;9.294;2022-09-12T04:15:16;4.60;;;2.00;;
18818;SDS011;9537;45.594;9.294;2022-09-12T04:16:38;2.93;;;1.93;;
18818;SDS011;9537;45.594;9.294;2022-09-12T04:18:00;4.90;;;2.33;;
18818;SDS011;9537;45.594;9.294;2022-09-12T04:19:21;4.17;;;2.07;;
18818;SDS011;9537;45.594;9.294;2022-09-12T04:20:43;4.37;;;1.90;;
18818;SDS011;9537;45.594;9.294;2022-09-12T04:22:05;4.63;;;1.93;;
18818;SDS011;9537;45.594;9.294;2022-09-12T04:23:27;4.93;;;2.10;;
18818;SDS011;9537;45.594;9.294;2022-09-12T04:24:48;5.77;;;2.47;;
18818;SDS011;9537;45.594;9.294;2022-09-12T04:26:11;3.73;;;1.90;;
18818;SDS011;9537;45.594;9.294;2022-09-12T04:27:33;7.77;;;2.23;;
18818;SDS011;9537;45.594;9.294;2022-09-12T04:28:55;2.93;;;1.87;;
18818;SDS011;9537;45.594;9.294;2022-09-12T04:30:17;2.10;;;1.90;;
18818;SDS011;9537;45.594;9.294;2022-09-12T04:31:39;3.73;;;1.97;;
18818;SDS011;9537;45.594;9.294;2022-09-12T04:33:02;4.73;;;2.10;;
18818;SDS011;9537;45.594;9.294;2022-09-12T04:34:24;2.37;;;2.00;;
18818;SDS011;9537;45.594;9.294;2022-09-12T04:35:46;2.20;;;2.00;;
18818;SDS011;9537;45.594;9.294;2022-09-12T04:37:09;3.10;;;1.90;;
18818;SDS011;9537;45.594;9.294;2022-09-12T04:38:32;3.63;;;2.07;;
18818;SDS011;9537;45.594;9.294;2022-09-12T04:39:55;2.17;;;1.80;;
18818;SDS011;9537;45.594;9.294;2022-09-12T04:41:17;3.90;;;2.00;;
18818;SDS011;9537;45.594;9.294;2022-09-12T04:42:41;2.40;;;1.67;;
18818;SDS011;9537;45.594;9.294;2022-09-12T04:44:04;2.50;;;2.07;;
18818;SDS011;9537;45.594;9.294;2022-09-12T04:45:26;2.07;;;1.63;;
18818;SDS011;9537;45.594;9.294;2022-09-12T04:46:48;5.73;;;2.03;;
18818;SDS011;9537;45.594;9.294;2022-09-12T04:48:12;5.20;;;2.93;;
18818;SDS011;9537;45.594;9.294;2022-09-12T04:49:33;2.63;;;1.93;;
18818;SDS011;9537;45.594;9.294;2022-09-12T04:50:55;3.37;;;2.00;;
18818;SDS011;9537;45.594;9.294;2022-09-12T04:52:27;3.83;;;2.07;;
18818;SDS011;9537;45.594;9.294;2022-09-12T04:53:51;2.63;;;1.70;;
18818;SDS011;9537;45.594;9.294;2022-09-12T04:55:12;4.87;;;2.07;;
18818;SDS011;9537;45.594;9.294;2022-09-12T04:56:36;4.07;;;2.00;;
18818;SDS011;9537;45.594;9.294;2022-09-12T04:57:59;3.77;;;2.20;;
18818;SDS011;9537;45.594;9.294;2022-09-12T04:59:21;3.87;;;1.73;;
18818;SDS011;9537;45.594;9.294;2022-09-12T05:00:43;4.50;;;1.90;;
18818;SDS011;9537;45.594;9.294;2022-09-12T05:02:04;2.27;;;1.80;;
18818;SDS011;9537;45.594;9.294;2022-09-12T05:03:26;4.30;;;1.90;;
18818;SDS011;9537;45.594;9.294;2022-09-12T05:04:47;5.40;;;2.10;;
18818;SDS011;9537;45.594;9.294;2022-09-12T05:06:10;2.30;;;1.80;;
18818;SDS011;9537;45.594;9.294;2022-09-12T05:07:35;6.43;;;1.80;;
18818;SDS011;9537;45.594;9.294;2022-09-12T05:08:57;2.67;;;1.53;;
18818;SDS011;9537;45.594;9.294;2022-09-12T05:10:21;2.40;;;1.90;;
18818;SDS011;9537;45.594;9.294;2022-09-12T05:11:43;2.77;;;1.93;;
18818;SDS011;9537;45.594;9.294;2022-09-12T05:13:06;5.50;;;2.23;;
18818;SDS011;9537;45.594;9.294;2022-09-12T05:14:27;2.80;;;1.90;;
18818;SDS011;9537;45.594;9.294;2022-09-12T05:15:55;3.47;;;2.00;;
18818;SDS011;9537;45.594;9.294;2022-09-12T05:17:16;1.80;;;1.70;;
18818;SDS011;9537;45.594;9.294;2022-09-12T05:18:38;4.20;;;1.80;;
18818;SDS011;9537;45.594;9.294;2022-09-12T05:19:59;2.77;;;1.93;;
18818;SDS011;9537;45.594;9.294;2022-09-12T05:21:21;6.50;;;2.07;;
18818;SDS011;9537;45.594;9.294;2022-09-12T05:22:44;2.53;;;2.00;;
18818;SDS011;9537;45.594;9.294;2022-09-12T05:24:06;3.73;;;1.90;;
18818;SDS011;9537;45.594;9.294;2022-09-12T05:25:28;3.90;;;1.90;;
18818;SDS011;9537;45.594;9.294;2022-09-12T05:26:49;3.07;;;1.97;;
18818;SDS011;9537;45.594;9.294;2022-09-12T05:28:11;2.80;;;1.93;;
18818;SDS011;9537;45.594;9.294;2022-09-12T05:29:32;4.77;;;1.93;;
18818;SDS011;9537;45.594;9.294;2022-09-12T05:30:59;3.67;;;2.17;;
18818;SDS011;9537;45.594;9.294;2022-09-12T05:32:21;3.87;;;2.20;;
18818;SDS011;9537;45.594;9.294;2022-09-12T05:33:43;3.73;;;2.30;;
18818;SDS011;9537;45.594;9.294;2022-09-12T05:35:06;3.37;;;2.30;;
18818;SDS011;9537;45.594;9.294;2022-09-12T05:36:28;3.83;;;2.07;;
18818;SDS011;9537;45.594;9.294;2022-09-12T05:37:51;3.10;;;2.10;;
18818;SDS011;9537;45.594;9.294;2022-09-12T05:39:13;4.47;;;2.30;;
18818;SDS011;9537;45.594;9.294;2022-09-12T05:40:35;2.50;;;2.23;;
18818;SDS011;9537;45.594;9.294;2022-09-12T05:41:56;4.53;;;2.17;;
18818;SDS011;9537;45.594;9.294;2022-09-12T05:43:18;2.37;;;2.03;;
18818;SDS011;9537;45.594;9.294;2022-09-12T05:44:39;2.97;;;2.07;;
18818;SDS011;9537;45.594;9.294;2022-09-12T05:46:02;3.87;;;2.07;;
18818;SDS011;9537;45.594;9.294;2022-09-12T05:47:24;4.10;;;2.10;;
18818;SDS011;9537;45.594;9.294;2022-09-12T05:48:46;4.43;;;1.90;;
18818;SDS011;9537;45.594;9.294;2022-09-12T05:50:08;3.83;;;2.10;;
18818;SDS011;9537;45.594;9.294;2022-09-12T05:51:32;2.40;;;2.20;;
18818;SDS011;9537;45.594;9.294;2022-09-12T05:52:58;4.27;;;2.60;;
18818;SDS011;9537;45.594;9.294;2022-09-12T05:54:19;2.37;;;1.93;;
18818;SDS011;9537;45.594;9.294;2022-09-12T05:55:42;3.30;;;2.57;;
18818;SDS011;9537;45.594;9.294;2022-09-12T05:57:03;2.93;;;2.00;;
18818;SDS011;9537;45.594;9.294;2022-09-12T05:58:25;2.73;;;1.50;;
18818;SDS011;9537;45.594;9.294;2022-09-12T05:59:46;4.57;;;2.13;;
18818;SDS011;9537;45.594;9.294;2022-09-12T06:01:09;2.63;;;2.30;;
18818;SDS011;9537;45.594;9.294;2022-09-12T06:02:31;3.27;;;2.37;;
18818;SDS011;9537;45.594;9.294;2022-09-12T06:03:54;6.50;;;2.03;;
18818;SDS011;9537;45.594;9.294;2022-09-12T06:05:20;6.23;;;2.27;;
18818;SDS011;9537;45.594;9.294;2022-09-12T06:06:41;3.93;;;2.10;;
18818;SDS011;9537;45.594;9.294;2022-09-12T06:08:06;4.03;;;2.00;;
18818;SDS011;9537;45.594;9.294;2022-09-12T06:09:27;2.97;;;2.10;;
18818;SDS011;9537;45.594;9.294;2022-09-12T06:10:49;7.13;;;2.43;;
18818;SDS011;9537;45.594;9.294;2022-09-12T06:12:10;3.47;;;2.53;;
18818;SDS011;9537;45.594;9.294;2022-09-12T06:13:33;11.60;;;2.50;;
18818;SDS011;9537;45.594;9.294;2022-09-12T06:14:56;2.53;;;2.17;;
18818;SDS011;9537;45.594;9.294;2022-09-12T06:16:19;2.57;;;1.80;;
18818;SDS011;9537;45.594;9.294;2022-09-12T06:17:43;7.77;;;2.80;;
18818;SDS011;9537;45.594;9.294;2022-09-12T06:19:05;4.30;;;2.30;;
18818;SDS011;9537;45.594;9.294;2022-09-12T06:20:34;2.57;;;2.20;;
18818;SDS011;9537;45.594;9.294;2022-09-12T06:21:57;5.67;;;2.20;;
18818;SDS011;9537;45.594;9.294;2022-09-12T06:23:20;3.00;;;2.10;;
18818;SDS011;9537;45.594;9.294;2022-09-12T06:24:42;4.40;;;2.40;;
18818;SDS011;9537;45.594;9.294;2022-09-12T06:26:05;3.10;;;2.47;;
18818;SDS011;9537;45.594;9.294;2022-09-12T06:27:29;4.07;;;2.10;;
18818;SDS011;9537;45.594;9.294;2022-09-12T06:28:51;3.67;;;2.03;;
18818;SDS011;9537;45.594;9.294;2022-09-12T06:30:13;3.57;;;2.30;;
18818;SDS011;9537;45.594;9.294;2022-09-12T06:31:38;2.50;;;1.97;;
18818;SDS011;9537;45.594;9.294;2022-09-12T06:33:01;3.73;;;2.30;;
18818;SDS011;9537;45.594;9.294;2022-09-12T06:34:23;4.87;;;2.20;;
18818;SDS011;9537;45.594;9.294;2022-09-12T06:35:46;3.40;;;2.30;;
18818;SDS011;9537;45.594;9.294;2022-09-12T06:37:07;6.83;;;1.90;;
18818;SDS011;9537;45.594;9.294;2022-09-12T06:38:31;4.30;;;2.00;;
18818;SDS011;9537;45.594;9.294;2022-09-12T06:39:52;4.93;;;2.60;;
18818;SDS011;9537;45.594;9.294;2022-09-12T06:41:14;3.27;;;2.43;;
18818;SDS011;9537;45.594;9.294;2022-09-12T06:42:36;7.87;;;2.53;;
18818;SDS011;9537;45.594;9.294;2022-09-12T06:43:58;4.23;;;2.50;;
18818;SDS011;9537;45.594;9.294;2022-09-12T06:45:22;4.23;;;2.40;;
18818;SDS011;9537;45.594;9.294;2022-09-12T06:46:43;2.87;;;2.43;;
18818;SDS011;9537;45.594;9.294;2022-09-12T06:48:06;3.30;;;2.33;;
18818;SDS011;9537;45.594;9.294;2022-09-12T06:49:28;5.33;;;2.20;;
18818;SDS011;9537;45.594;9.294;2022-09-12T06:50:54;5.07;;;2.70;;
18818;SDS011;9537;45.594;9.294;2022-09-12T06:52:17;9.57;;;2.90;;
18818;SDS011;9537;45.594;9.294;2022-09-12T06:53:41;2.70;;;2.00;;
18818;SDS011;9537;45.594;9.294;2022-09-12T06:55:05;4.03;;;2.40;;
18818;SDS011;9537;45.594;9.294;2022-09-12T06:56:28;4.07;;;2.37;;
18818;SDS011;9537;45.594;9.294;2022-09-12T06:57:50;7.43;;;2.57;;
18818;SDS011;9537;45.594;9.294;2022-09-12T06:59:12;4.63;;;2.60;;
18818;SDS011;9537;45.594;9.294;2022-09-12T07:00:34;4.20;;;2.30;;
18818;SDS011;9537;45.594;9.294;2022-09-12T07:01:55;4.17;;;2.53;;
18818;SDS011;9537;45.594;9.294;2022-09-12T07:03:17;5.37;;;2.80;;
18818;SDS011;9537;45.594;9.294;2022-09-12T07:04:39;4.57;;;2.47;;
18818;SDS011;9537;45.594;9.294;2022-09-12T07:06:02;2.10;;;1.90;;
18818;SDS011;9537;45.594;9.294;2022-09-12T07:07:25;7.40;;;2.37;;
18818;SDS011;9537;45.594;9.294;2022-09-12T07:08:49;4.23;;;2.47;;
18818;SDS011;9537;45.594;9.294;2022-09-12T07:10:11;3.83;;;2.10;;
18818;SDS011;9537;45.594;9.294;2022-09-12T07:11:14;3.30;;;2.00;;
18818;SDS011;9537;45.594;9.294;2022-09-12T07:12:17;4.70;;;2.13;;
18818;SDS011;9537;45.594;9.294;2022-09-12T07:13:19;6.17;;;2.07;;
18818;SDS011;9537;45.594;9.294;2022-09-12T07:14:20;5.90;;;2.10;;
18818;SDS011;9537;45.594;9.294;2022-09-12T07:15:22;4.88;;;1.88;;
18818;SDS011;9537;45.594;9.294;2022-09-12T07:16:23;2.55;;;1.70;;
18818;SDS011;9537;45.594;9.294;2022-09-12T07:17:25;2.30;;;1.50;;
18818;SDS011;9537;45.594;9.294;2022-09-12T07:18:27;2.58;;;1.58;;
18818;SDS011;9537;45.594;9.294;2022-09-12T07:19:28;5.88;;;2.00;;
18818;SDS011;9537;45.594;9.294;2022-09-12T07:20:32;4.40;;;1.70;;
18818;SDS011;9537;45.594;9.294;2022-09-12T07:21:33;3.38;;;1.95;;
18818;SDS011;9537;45.594;9.294;2022-09-12T07:22:39;3.37;;;1.63;;
18818;SDS011;9537;45.594;9.294;2022-09-12T07:23:41;5.53;;;1.55;;
18818;SDS011;9537;45.594;9.294;2022-09-12T07:24:46;2.70;;;1.60;;
18818;SDS011;9537;45.594;9.294;2022-09-12T07:25:51;1.90;;;1.60;;
18818;SDS011;9537;45.594;9.294;2022-09-12T07:26:57;1.55;;;1.40;;
18818;SDS011;9537;45.594;9.294;2022-09-12T07:27:59;3.05;;;1.63;;
18818;SDS011;9537;45.594;9.294;2022-09-12T07:29:00;5.25;;;1.63;;
18818;SDS011;9537;45.594;9.294;2022-09-12T07:30:02;6.22;;;1.83;;
18818;SDS011;9537;45.594;9.294;2022-09-12T07:31:05;3.25;;;1.50;;
18818;SDS011;9537;45.594;9.294;2022-09-12T07:32:08;6.32;;;2.15;;
18818;SDS011;9537;45.594;9.294;2022-09-12T07:33:09;1.92;;;1.48;;
18818;SDS011;9537;45.594;9.294;2022-09-12T07:34:11;2.83;;;1.80;;
18818;SDS011;9537;45.594;9.294;2022-09-12T07:35:13;1.95;;;1.35;;
18818;SDS011;9537;45.594;9.294;2022-09-12T07:36:16;4.20;;;1.63;;
18818;SDS011;9537;45.594;9.294;2022-09-12T07:37:18;2.33;;;1.20;;
18818;SDS011;9537;45.594;9.294;2022-09-12T07:38:20;2.25;;;1.27;;
18818;SDS011;9537;45.594;9.294;2022-09-12T07:39:21;7.32;;;1.50;;
18818;SDS011;9537;45.594;9.294;2022-09-12T07:40:25;2.15;;;1.55;;
18818;SDS011;9537;45.594;9.294;2022-09-12T07:41:26;2.15;;;1.40;;
18818;SDS011;9537;45.594;9.294;2022-09-12T07:42:30;2.38;;;1.48;;
18818;SDS011;9537;45.594;9.294;2022-09-12T07:43:31;5.15;;;1.63;;
18818;SDS011;9537;45.594;9.294;2022-09-12T07:44:33;3.40;;;1.70;;
18818;SDS011;9537;45.594;9.294;2022-09-12T07:45:34;4.07;;;1.65;;
18818;SDS011;9537;45.594;9.294;2022-09-12T07:46:36;4.32;;;1.50;;
18818;SDS011;9537;45.594;9.294;2022-09-12T07:47:39;2.22;;;1.60;;
18818;SDS011;9537;45.594;9.294;2022-09-12T07:48:41;4.50;;;1.80;;
18818;SDS011;9537;45.594;9.294;2022-09-12T07:49:43;3.97;;;1.50;;
18818;SDS011;9537;45.594;9.294;2022-09-12T07:50:45;3.42;;;1.88;;
18818;SDS011;9537;45.594;9.294;2022-09-12T07:51:46;4.47;;;1.45;;
18818;SDS011;9537;45.594;9.294;2022-09-12T07:52:48;1.83;;;1.30;;
18818;SDS011;9537;45.594;9.294;2022-09-12T07:53:49;1.10;;;1.00;;
18818;SDS011;9537;45.594;9.294;2022-09-12T07:54:52;1.67;;;1.02;;
18818;SDS011;9537;45.594;9.294;2022-09-12T07:55:55;1.30;;;1.20;;
18818;SDS011;9537;45.594;9.294;2022-09-12T07:56:57;1.95;;;1.20;;
18818;SDS011;9537;45.594;9.294;2022-09-12T07:57:58;2.55;;;1.70;;
18818;SDS011;9537;45.594;9.294;2022-09-12T07:59:00;1.58;;;1.13;;
18818;SDS011;9537;45.594;9.294;2022-09-12T08:00:02;4.65;;;1.25;;
18818;SDS011;9537;45.594;9.294;2022-09-12T08:01:07;2.33;;;1.10;;
18818;SDS011;9537;45.594;9.294;2022-09-12T08:02:10;2.03;;;1.27;;
18818;SDS011;9537;45.594;9.294;2022-09-12T08:03:14;1.25;;;1.10;;
18818;SDS011;9537;45.594;9.294;2022-09-12T08:04:15;1.00;;;1.00;;
18818;SDS011;9537;45.594;9.294;2022-09-12T08:05:17;2.03;;;1.30;;
18818;SDS011;9537;45.594;9.294;2022-09-12T08:06:19;2.33;;;1.13;;
18818;SDS011;9537;45.594;9.294;2022-09-12T08:07:23;1.60;;;1.30;;
18818;SDS011;9537;45.594;9.294;2022-09-12T08:08:25;3.05;;;1.17;;
18818;SDS011;9537;45.594;9.294;2022-09-12T08:09:27;1.20;;;1.10;;
18818;SDS011;9537;45.594;9.294;2022-09-12T08:10:28;5.82;;;1.40;;
18818;SDS011;9537;45.594;9.294;2022-09-12T08:11:32;2.22;;;1.20;;
18818;SDS011;9537;45.594;9.294;2022-09-12T08:12:33;2.78;;;1.23;;
18818;SDS011;9537;45.594;9.294;2022-09-12T08:13:36;5.65;;;1.40;;
18818;SDS011;9537;45.594;9.294;2022-09-12T08:14:38;1.90;;;1.30;;
18818;SDS011;9537;45.594;9.294;2022-09-12T08:15:41;2.95;;;1.33;;
18818;SDS011;9537;45.594;9.294;2022-09-12T08:16:42;1.73;;;1.00;;
18818;SDS011;9537;45.594;9.294;2022-09-12T08:17:43;1.90;;;1.08;;